Isle of Lewis, United Kingdom
Current Conditions -  °F | °C
As of 4:20 PM on Sunday 25 Jan 2015 (Local Time) from EGPO Reporting Station
Rain Showers Rain Showers  
Wind Chill: 39°   Ceiling: Unl
Heat Index: 46°   Visibility: 6mi
Dew Point: 41°   Wind: 21mph
Humidity: 81%   Direction: 250°WSW
Pressure: 29.77"   Gusts: NA
Location:  58.22°N, 6.35°W
Report Text: EGPO 251620Z 25018KT 9999 -SHRA FEW009 SCT034 08/05 Q1008
Loading
Personal Weather Stations






























Interactive Weather Map New forecast layout! Learn more

10-Day Weather Forecast

Advertisements
Track Severe Weather on mobile